Time;durP1;ratioP1;P1;durP2;ratioP2;P2;SDS_P1;SDS_P2;PMS_P1;PMS_P2;Temp;Humidity;BMP_temperature;BMP_pressure;BME280_temperature;BME280_humidity;BME280_pressure;Samples;Min_cycle;Max_cycle;Signal;HPM_P1;HPM_P2
2021/03/10 00:01:58;;;;;;;20.00;17.93;;;5.50;83.20;;;;;;5071367;28;20492;-71
2021/03/10 00:04:24;;;;;;;17.17;14.30;;;5.50;83.20;;;;;;5071700;28;20079;-70
2021/03/10 00:06:49;;;;;;;18.63;16.70;;;5.60;83.20;;;;;;5070861;28;20047;-71
2021/03/10 00:09:15;;;;;;;19.13;17.13;;;5.60;83.00;;;;;;5071505;28;20121;-70
2021/03/10 00:11:41;;;;;;;20.83;18.17;;;5.60;82.90;;;;;;5071509;28;20045;-71
2021/03/10 00:14:06;;;;;;;19.70;17.63;;;5.70;83.00;;;;;;5070789;28;20040;-70
2021/03/10 00:16:32;;;;;;;18.13;14.80;;;5.70;83.00;;;;;;5071379;28;20495;-70
2021/03/10 00:18:58;;;;;;;21.90;17.83;;;5.80;83.00;;;;;;5071432;28;20332;-69
2021/03/10 00:21:24;;;;;;;19.40;17.30;;;5.80;82.80;;;;;;5070655;28;20059;-70
2021/03/10 00:23:50;;;;;;;20.03;17.00;;;5.80;82.70;;;;;;5071315;28;20299;-69
2021/03/10 00:26:15;;;;;;;20.83;17.43;;;5.80;82.80;;;;;;5071365;28;20105;-70
2021/03/10 00:28:41;;;;;;;20.30;18.20;;;5.70;83.00;;;;;;5070606;28;20071;-69
2021/03/10 00:31:07;;;;;;;19.30;17.30;;;5.70;83.20;;;;;;5071147;28;20055;-70
2021/03/10 00:33:32;;;;;;;15.10;13.50;;;5.60;83.40;;;;;;5071492;28;20045;-70
2021/03/10 00:35:58;;;;;;;17.97;16.07;;;5.50;83.60;;;;;;5070595;28;20683;-70
2021/03/10 00:38:23;;;;;;;18.93;16.13;;;5.40;83.90;;;;;;5071153;28;20045;-69
2021/03/10 00:40:49;;;;;;;20.27;18.17;;;5.30;84.30;;;;;;5070784;28;20504;-70
2021/03/10 00:43:15;;;;;;;19.67;15.93;;;5.30;84.60;;;;;;5070372;28;20148;-70
2021/03/10 00:45:40;;;;;;;19.47;17.37;;;5.30;84.60;;;;;;5070968;28;20104;-70
2021/03/10 00:48:07;;;;;;;20.60;18.57;;;5.30;84.60;;;;;;5072014;28;20060;-70
2021/03/10 00:50:32;;;;;;;18.07;16.27;;;5.30;84.60;;;;;;5074884;28;20497;-70
2021/03/10 00:52:58;;;;;;;19.93;17.50;;;5.30;84.60;;;;;;5075093;28;20757;-70
2021/03/10 00:55:24;;;;;;;18.63;16.60;;;5.40;84.60;;;;;;5074236;28;20044;-70
2021/03/10 00:57:50;;;;;;;17.13;15.33;;;5.40;84.30;;;;;;5074962;28;20056;-69
2021/03/10 01:00:18;;;;;;;19.07;17.07;;;5.40;84.20;;;;;;5074835;28;20397;-70
2021/03/10 01:02:43;;;;;;;21.53;18.07;;;5.50;84.10;;;;;;5074327;28;20048;-70
2021/03/10 01:05:10;;;;;;;20.43;18.37;;;5.50;83.90;;;;;;5074795;28;20779;-70
2021/03/10 01:07:35;;;;;;;20.60;18.37;;;5.50;83.90;;;;;;5075176;28;20087;-70
2021/03/10 01:10:07;;;;;;;19.90;17.80;;;5.50;83.70;;;;;;5073885;28;20403;-69
2021/03/10 01:12:33;;;;;;;17.67;15.57;;;5.60;83.60;;;;;;5074924;28;20049;-70
2021/03/10 01:14:59;;;;;;;19.77;17.60;;;5.60;83.40;;;;;;5074474;28;20053;-70
2021/03/10 01:17:25;;;;;;;19.23;17.20;;;5.50;83.30;;;;;;5073892;28;20315;-69
2021/03/10 01:19:51;;;;;;;20.07;16.80;;;5.50;83.10;;;;;;5074571;28;20127;-70
2021/03/10 01:22:18;;;;;;;19.60;17.53;;;5.50;82.90;;;;;;5074464;28;20306;-69
2021/03/10 01:24:43;;;;;;;19.60;17.50;;;5.60;82.80;;;;;;5073507;28;20717;-70
2021/03/10 01:27:09;;;;;;;18.13;15.93;;;5.60;82.70;;;;;;5074181;28;20291;-70
2021/03/10 01:29:35;;;;;;;19.60;17.53;;;5.50;82.80;;;;;;5074519;28;20143;-70
2021/03/10 01:32:01;;;;;;;18.00;16.10;;;5.50;83.00;;;;;;5073690;28;20063;-69
2021/03/10 01:34:27;;;;;;;17.80;15.63;;;5.50;83.20;;;;;;5074476;28;20057;-70
2021/03/10 01:36:52;;;;;;;20.33;18.13;;;5.50;83.10;;;;;;5073884;28;20787;-70
2021/03/10 01:39:18;;;;;;;17.10;15.43;;;5.40;83.00;;;;;;5073139;28;20133;-69
2021/03/10 01:41:44;;;;;;;20.70;18.50;;;5.40;83.10;;;;;;5074084;28;20552;-69
2021/03/10 01:44:13;;;;;;;20.57;18.10;;;5.40;83.20;;;;;;5073881;28;20142;-69
2021/03/10 01:46:40;;;;;;;17.87;15.70;;;5.30;83.50;;;;;;5073453;28;20049;-69
2021/03/10 01:49:07;;;;;;;18.50;15.73;;;5.30;83.80;;;;;;5073819;28;20767;-70
2021/03/10 01:51:33;;;;;;;19.90;17.80;;;5.30;83.80;;;;;;5073483;28;20423;-69
2021/03/10 01:54:00;;;;;;;18.30;16.40;;;5.30;83.70;;;;;;5073811;28;20341;-69
2021/03/10 01:56:27;;;;;;;19.43;17.43;;;5.30;83.70;;;;;;5073667;28;20048;-69
2021/03/10 01:58:53;;;;;;;19.03;17.03;;;5.30;83.80;;;;;;5073210;28;20330;-69
2021/03/10 02:01:20;;;;;;;19.13;16.33;;;5.30;83.60;;;;;;5072994;28;20299;-69
2021/03/10 02:03:46;;;;;;;18.90;16.90;;;5.30;83.80;;;;;;5073790;28;20303;-69
2021/03/10 02:06:36;;;;;;;17.90;16.00;;;5.30;83.80;;;;;;5072965;28;20321;-69
2021/03/10 02:09:09;;;;;;;17.00;15.20;;;5.30;83.40;;;;;;5072456;28;20099;-69
2021/03/10 02:11:48;;;;;;;17.87;16.03;;;5.20;83.20;;;;;;5073984;28;20279;-69
2021/03/10 02:14:27;;;;;;;18.30;16.40;;;5.30;83.40;;;;;;5072923;28;20424;-69
2021/03/10 02:17:07;;;;;;;16.67;14.97;;;5.30;83.50;;;;;;5073297;28;20318;-69
2021/03/10 02:19:57;;;;;;;16.00;14.07;;;5.30;83.00;;;;;;5073608;28;20302;-70
2021/03/10 02:22:42;;;;;;;17.03;15.07;;;5.40;82.60;;;;;;5073515;28;20349;-69
2021/03/10 02:25:30;;;;;;;15.87;14.27;;;5.40;81.90;;;;;;5073523;28;20310;-69
2021/03/10 02:27:59;;;;;;;16.77;14.73;;;5.40;81.70;;;;;;5072404;28;20306;-70
2021/03/10 02:30:29;;;;;;;17.50;15.77;;;5.40;81.70;;;;;;5073236;28;20299;-69
2021/03/10 02:32:57;;;;;;;17.30;15.50;;;5.40;81.60;;;;;;5073184;28;20299;-70
2021/03/10 02:35:26;;;;;;;16.63;14.93;;;5.30;81.30;;;;;;5072241;28;20789;-69
2021/03/10 02:37:56;;;;;;;16.60;14.90;;;5.30;81.30;;;;;;5072995;28;20315;-70
2021/03/10 02:40:24;;;;;;;15.20;13.63;;;5.30;81.30;;;;;;5072789;28;20306;-69
2021/03/10 02:42:51;;;;;;;16.50;14.53;;;5.30;81.20;;;;;;5072346;28;20388;-70
2021/03/10 02:45:20;;;;;;;16.60;14.90;;;5.30;81.20;;;;;;5073004;28;20299;-70
2021/03/10 02:47:47;;;;;;;17.27;15.47;;;5.30;81.10;;;;;;5072170;28;20330;-70
2021/03/10 02:50:14;;;;;;;18.20;15.33;;;5.30;81.00;;;;;;5072846;28;20305;-70
2021/03/10 02:52:40;;;;;;;16.77;15.07;;;5.30;80.90;;;;;;5072651;28;20307;-70
2021/03/10 02:55:07;;;;;;;16.17;14.47;;;5.20;80.90;;;;;;5071909;28;20299;-70
2021/03/10 02:57:33;;;;;;;16.03;13.77;;;5.20;81.00;;;;;;5073026;28;20357;-70
2021/03/10 03:00:03;;;;;;;16.83;15.13;;;5.20;80.90;;;;;;5072709;28;20302;-70
2021/03/10 03:02:29;;;;;;;17.70;15.37;;;5.20;80.80;;;;;;5072189;28;20303;-70
2021/03/10 03:04:54;;;;;;;17.33;14.60;;;5.20;80.90;;;;;;5072448;28;20295;-70
2021/03/10 03:07:20;;;;;;;15.00;13.40;;;5.10;80.80;;;;;;5072391;28;20052;-70
2021/03/10 03:09:46;;;;;;;15.67;14.13;;;5.20;81.00;;;;;;5071911;28;20045;-70
2021/03/10 03:12:13;;;;;;;17.43;15.70;;;5.10;80.90;;;;;;5071353;28;20052;-70
2021/03/10 03:14:41;;;;;;;16.33;14.53;;;5.20;80.90;;;;;;5072520;28;20295;-70
2021/03/10 03:17:08;;;;;;;18.00;16.20;;;5.20;80.90;;;;;;5071415;28;20748;-70
2021/03/10 03:19:33;;;;;;;16.10;14.37;;;5.10;80.80;;;;;;5072577;28;20298;-69
2021/03/10 03:22:00;;;;;;;17.00;15.20;;;5.10;81.00;;;;;;5071996;28;20299;-70
2021/03/10 03:24:29;;;;;;;16.83;15.13;;;5.10;81.20;;;;;;5071928;28;20048;-70
2021/03/10 03:26:56;;;;;;;18.70;16.77;;;5.10;81.30;;;;;;5072100;28;20659;-70
2021/03/10 03:29:23;;;;;;;15.57;13.33;;;5.10;81.20;;;;;;5072083;28;20393;-70
2021/03/10 03:31:50;;;;;;;17.53;15.73;;;5.10;80.90;;;;;;5071361;28;20643;-70
2021/03/10 03:34:16;;;;;;;17.50;15.70;;;5.10;80.90;;;;;;5071919;28;20382;-70
2021/03/10 03:36:42;;;;;;;18.13;16.17;;;5.10;80.90;;;;;;5071759;28;20563;-70
2021/03/10 03:39:10;;;;;;;16.90;15.13;;;5.10;80.90;;;;;;5071223;28;20485;-70
2021/03/10 03:41:36;;;;;;;17.03;15.23;;;5.20;80.90;;;;;;5072175;28;20048;-70
2021/03/10 03:44:03;;;;;;;16.43;14.73;;;5.20;80.80;;;;;;5071012;28;20694;-70
2021/03/10 03:46:31;;;;;;;17.17;15.33;;;5.20;80.50;;;;;;5071917;28;20097;-70
2021/03/10 03:49:01;;;;;;;18.77;15.93;;;5.20;80.40;;;;;;5071550;28;20367;-70
2021/03/10 03:51:29;;;;;;;17.10;15.37;;;5.10;80.50;;;;;;5071437;28;20364;-70
2021/03/10 03:54:03;;;;;;;16.00;14.30;;;5.10;80.70;;;;;;5071811;28;20294;-70
2021/03/10 03:56:30;;;;;;;15.57;14.00;;;5.00;80.90;;;;;;5071921;28;20299;-69
2021/03/10 03:58:56;;;;;;;17.17;15.40;;;4.90;81.20;;;;;;5070639;28;20806;-70
2021/03/10 04:01:23;;;;;;;15.60;12.97;;;4.80;81.70;;;;;;5071583;28;20303;-70
2021/03/10 04:03:49;;;;;;;14.07;12.47;;;4.70;81.90;;;;;;5071690;28;20334;-69
2021/03/10 04:06:15;;;;;;;12.67;11.37;;;4.70;81.90;;;;;;5070891;28;20310;-69
2021/03/10 04:08:42;;;;;;;16.77;15.07;;;4.70;81.90;;;;;;5071579;28;20299;-70
2021/03/10 04:11:09;;;;;;;15.20;13.37;;;4.60;82.10;;;;;;5071501;28;20307;-69
2021/03/10 04:13:35;;;;;;;16.60;14.83;;;4.40;83.40;;;;;;5070771;28;20291;-70
2021/03/10 04:16:01;;;;;;;17.10;15.10;;;4.30;83.20;;;;;;5071219;28;20390;-70
2021/03/10 04:18:26;;;;;;;17.50;15.33;;;4.30;83.40;;;;;;5071547;28;20445;-70
2021/03/10 04:20:52;;;;;;;19.40;17.13;;;4.30;83.70;;;;;;5070808;28;20044;-70
2021/03/10 04:23:18;;;;;;;18.97;16.97;;;4.20;83.70;;;;;;5070790;28;20147;-70
2021/03/10 04:25:44;;;;;;;17.77;15.93;;;4.00;83.90;;;;;;5071275;28;20052;-70
2021/03/10 04:28:10;;;;;;;17.60;15.50;;;3.90;84.30;;;;;;5070537;28;20352;-70
2021/03/10 04:30:35;;;;;;;17.57;15.73;;;3.80;84.90;;;;;;5071355;28;20457;-69
2021/03/10 04:33:02;;;;;;;18.07;16.27;;;3.90;85.10;;;;;;5070998;28;20047;-69
2021/03/10 04:35:27;;;;;;;17.47;15.67;;;3.90;84.90;;;;;;5070786;28;20048;-70
2021/03/10 04:37:53;;;;;;;18.30;16.10;;;4.00;84.80;;;;;;5070979;28;20787;-69
2021/03/10 04:40:19;;;;;;;16.60;14.73;;;4.00;84.50;;;;;;5070171;28;20098;-69
2021/03/10 04:42:46;;;;;;;18.07;15.40;;;4.10;84.40;;;;;;5071129;28;20094;-69
2021/03/10 04:45:12;;;;;;;18.60;16.50;;;4.10;84.20;;;;;;5070952;28;20381;-70
2021/03/10 04:47:39;;;;;;;17.57;15.50;;;4.10;84.00;;;;;;5070926;28;20321;-69
2021/03/10 04:50:06;;;;;;;18.87;16.10;;;4.20;84.10;;;;;;5071032;28;20436;-70
2021/03/10 04:52:32;;;;;;;17.47;15.47;;;4.10;84.10;;;;;;5071234;28;20850;-69
2021/03/10 04:54:58;;;;;;;16.63;14.53;;;4.00;84.10;;;;;;5070324;28;21304;-69
2021/03/10 04:57:24;;;;;;;18.83;16.00;;;4.00;84.30;;;;;;5070841;28;20349;-69
2021/03/10 04:59:50;;;;;;;17.17;15.07;;;4.00;84.50;;;;;;5070793;28;20337;-69
2021/03/10 05:02:17;;;;;;;16.93;15.13;;;4.00;84.70;;;;;;5070298;28;20470;-69
2021/03/10 05:04:42;;;;;;;16.77;15.00;;;4.00;84.70;;;;;;5070938;28;20072;-69
2021/03/10 05:07:08;;;;;;;18.10;15.33;;;4.00;85.10;;;;;;5070850;28;20333;-69
2021/03/10 05:09:34;;;;;;;21.23;16.73;;;4.00;85.10;;;;;;5070247;28;20088;-69
2021/03/10 05:11:59;;;;;;;20.27;17.17;;;4.00;84.90;;;;;;5070637;28;20049;-69
2021/03/10 05:14:25;;;;;;;17.83;15.80;;;4.00;85.00;;;;;;5070780;28;20101;-69
2021/03/10 05:16:51;;;;;;;18.57;16.53;;;4.00;85.10;;;;;;5070134;28;20048;-69
2021/03/10 05:19:17;;;;;;;17.57;15.67;;;4.00;85.10;;;;;;5070828;28;20408;-69
2021/03/10 05:21:42;;;;;;;18.90;16.37;;;3.90;85.20;;;;;;5070640;28;20299;-69
2021/03/10 05:24:09;;;;;;;17.20;15.40;;;3.90;85.30;;;;;;5069963;28;20052;-69
2021/03/10 05:26:38;;;;;;;17.07;15.27;;;3.90;85.50;;;;;;5070874;28;20056;-69
2021/03/10 05:29:05;;;;;;;15.10;13.50;;;3.90;85.70;;;;;;5070448;28;20303;-69
2021/03/10 05:31:31;;;;;;;17.67;15.87;;;3.90;85.50;;;;;;5070205;28;20302;-69
2021/03/10 05:33:56;;;;;;;17.87;15.97;;;3.90;85.50;;;;;;5070575;28;20299;-69
2021/03/10 05:36:23;;;;;;;17.37;14.63;;;3.90;85.40;;;;;;5073362;28;20052;-69
2021/03/10 05:38:49;;;;;;;17.73;15.83;;;3.90;85.30;;;;;;5073238;28;20048;-69
2021/03/10 05:41:15;;;;;;;14.10;12.60;;;4.00;85.20;;;;;;5073872;28;20322;-69
2021/03/10 05:43:42;;;;;;;19.07;16.03;;;3.90;86.00;;;;;;5073069;28;20310;-69
2021/03/10 05:46:08;;;;;;;17.70;15.70;;;3.80;85.40;;;;;;5074060;28;20044;-69
2021/03/10 05:48:35;;;;;;;14.77;13.20;;;3.80;85.40;;;;;;5074303;28;20317;-68
2021/03/10 05:51:02;;;;;;;19.63;15.73;;;3.80;85.60;;;;;;5073270;28;20049;-69
2021/03/10 05:53:29;;;;;;;20.00;16.10;;;3.80;85.70;;;;;;5074158;28;20344;-69
2021/03/10 05:55:59;;;;;;;19.60;15.50;;;3.90;85.80;;;;;;5073856;28;20303;-69
2021/03/10 05:58:25;;;;;;;20.67;16.10;;;3.90;85.80;;;;;;5073196;28;20397;-69
2021/03/10 06:00:51;;;;;;;16.77;14.97;;;4.00;85.70;;;;;;5073286;28;20374;-69
2021/03/10 06:03:17;;;;;;;19.77;16.00;;;4.00;85.60;;;;;;5073618;28;20489;-69
2021/03/10 06:05:44;;;;;;;18.47;16.43;;;4.00;85.90;;;;;;5072878;28;20086;-69
2021/03/10 06:08:14;;;;;;;19.70;17.10;;;4.00;86.20;;;;;;5073569;28;20049;-69
2021/03/10 06:10:46;;;;;;;18.67;16.47;;;4.00;86.40;;;;;;5073560;28;20294;-69
2021/03/10 06:13:29;;;;;;;17.83;15.90;;;4.00;86.20;;;;;;5072628;28;20681;-69
2021/03/10 06:15:59;;;;;;;19.33;16.67;;;4.10;86.30;;;;;;5073507;28;20339;-69
2021/03/10 06:18:32;;;;;;;21.87;17.63;;;4.10;86.30;;;;;;5073332;28;20732;-69
2021/03/10 06:21:07;;;;;;;19.17;17.03;;;4.20;86.20;;;;;;5072331;28;20368;-69
2021/03/10 06:23:34;;;;;;;19.93;16.43;;;4.20;86.20;;;;;;5073757;28;20352;-69
2021/03/10 06:26:02;;;;;;;20.17;17.60;;;4.20;86.20;;;;;;5072549;28;20647;-69
2021/03/10 06:28:36;;;;;;;21.77;17.87;;;4.20;86.30;;;;;;5073535;28;20311;-69
2021/03/10 06:31:02;;;;;;;22.97;18.53;;;4.30;86.30;;;;;;5072837;28;20299;-69
2021/03/10 06:33:27;;;;;;;18.93;16.83;;;4.30;86.00;;;;;;5072659;28;20368;-69
2021/03/10 06:35:53;;;;;;;22.40;18.97;;;4.40;85.90;;;;;;5072980;28;20052;-70
2021/03/10 06:38:19;;;;;;;21.37;18.20;;;4.40;85.60;;;;;;5073041;28;20189;-70
2021/03/10 06:40:57;;;;;;;19.63;17.60;;;4.50;85.50;;;;;;5071866;28;20139;-70
2021/03/10 06:43:53;;;;;;;20.93;18.30;;;4.50;85.30;;;;;;5072761;28;20295;-69
2021/03/10 06:46:19;;;;;;;17.70;15.50;;;4.40;85.40;;;;;;5071932;28;20302;-70
2021/03/10 06:48:56;;;;;;;20.03;17.87;;;4.50;85.60;;;;;;5072052;28;20303;-69
2021/03/10 06:51:23;;;;;;;18.90;15.33;;;4.50;85.50;;;;;;5072730;28;20303;-69
2021/03/10 06:53:49;;;;;;;21.53;18.43;;;4.60;85.50;;;;;;5072813;28;20381;-69
2021/03/10 06:56:25;;;;;;;19.27;17.17;;;4.60;85.20;;;;;;5071786;28;20394;-69
2021/03/10 06:59:02;;;;;;;18.43;16.20;;;4.70;85.20;;;;;;5072729;28;20051;-69
2021/03/10 07:01:38;;;;;;;19.43;17.37;;;4.70;85.10;;;;;;5071989;28;20295;-69
2021/03/10 07:04:06;;;;;;;20.90;18.13;;;4.80;85.20;;;;;;5072351;28;20289;-69
2021/03/10 07:06:33;;;;;;;20.30;18.20;;;4.80;85.20;;;;;;5072731;28;20303;-69
2021/03/10 07:09:00;;;;;;;20.27;18.07;;;4.90;85.10;;;;;;5071578;28;20294;-69
2021/03/10 07:11:26;;;;;;;20.27;18.10;;;4.90;84.80;;;;;;5072201;28;20794;-69
2021/03/10 07:13:52;;;;;;;21.53;19.27;;;5.00;84.50;;;;;;5072389;28;20298;-70
2021/03/10 07:16:19;;;;;;;21.37;18.83;;;5.00;84.30;;;;;;5071464;28;20047;-70
2021/03/10 07:18:47;;;;;;;21.33;19.03;;;5.00;84.40;;;;;;5072129;28;20347;-70
2021/03/10 07:21:22;;;;;;;24.27;19.10;;;5.00;84.30;;;;;;5072022;28;20309;-70
2021/03/10 07:23:49;;;;;;;21.10;18.90;;;5.00;84.30;;;;;;5071437;28;20317;-69
2021/03/10 07:26:17;;;;;;;20.17;18.07;;;5.00;84.40;;;;;;5071938;28;20701;-69
2021/03/10 07:28:49;;;;;;;20.07;17.87;;;5.10;85.30;;;;;;5072036;28;20291;-69
2021/03/10 07:31:19;;;;;;;20.83;18.47;;;5.10;84.90;;;;;;5071155;28;20782;-69
2021/03/10 07:33:56;;;;;;;20.87;18.67;;;5.20;84.20;;;;;;5071784;28;20294;-69
2021/03/10 07:36:39;;;;;;;22.67;18.40;;;5.20;84.00;;;;;;5070923;28;20314;-69
2021/03/10 07:39:19;;;;;;;20.03;17.17;;;5.20;83.70;;;;;;5071627;28;20636;-69
2021/03/10 07:41:45;;;;;;;21.60;18.83;;;5.30;83.70;;;;;;5071879;28;20302;-70
2021/03/10 07:44:25;;;;;;;21.57;18.67;;;5.40;83.60;;;;;;5070926;28;20352;-69
2021/03/10 07:47:12;;;;;;;23.03;19.13;;;5.40;82.80;;;;;;5071797;28;20127;-69
2021/03/10 07:49:39;;;;;;;20.57;18.30;;;5.40;82.80;;;;;;5071884;28;20299;-69
2021/03/10 07:52:11;;;;;;;20.17;17.73;;;5.40;82.70;;;;;;5070590;28;20743;-70
2021/03/10 07:54:38;;;;;;;20.47;16.87;;;5.50;82.30;;;;;;5071265;28;20302;-70
2021/03/10 07:57:16;;;;;;;21.47;18.20;;;5.50;82.50;;;;;;5070758;28;20319;-70
2021/03/10 07:59:58;;;;;;;19.63;17.00;;;5.50;82.30;;;;;;5068318;28;20654;-69
2021/03/10 08:02:26;;;;;;;20.58;16.83;;;5.60;82.20;;;;;;5068822;28;20320;-68
2021/03/10 08:05:02;;;;;;;18.03;16.13;;;5.50;82.00;;;;;;5070379;28;20048;-68
2021/03/10 08:07:32;;;;;;;22.47;16.60;;;5.50;82.10;;;;;;5069491;28;20348;-68
2021/03/10 08:09:58;;;;;;;19.37;17.37;;;5.60;82.30;;;;;;5070672;28;20303;-67
2021/03/10 08:12:34;;;;;;;19.77;16.90;;;5.70;82.20;;;;;;5070345;28;20654;-67
2021/03/10 08:15:00;;;;;;;21.13;17.53;;;5.70;81.90;;;;;;5069507;28;20072;-68
2021/03/10 08:17:28;;;;;;;18.93;16.43;;;5.70;81.80;;;;;;5070880;28;20338;-68
2021/03/10 08:20:03;;;;;;;20.63;18.13;;;5.70;81.60;;;;;;5067586;28;20052;-68
2021/03/10 08:22:30;;;;;;;20.73;16.03;;;5.70;81.70;;;;;;5071292;28;20295;-68
2021/03/10 08:25:01;;;;;;;20.07;17.90;;;5.70;81.70;;;;;;5070884;28;20393;-70
2021/03/10 08:27:31;;;;;;;18.27;15.95;;;5.70;82.00;;;;;;5070509;28;20314;-69
2021/03/10 08:29:58;;;;;;;20.43;17.50;;;5.80;81.80;;;;;;5070807;28;20052;-71
2021/03/10 08:32:25;;;;;;;19.13;16.60;;;5.80;81.70;;;;;;5069853;28;20326;-69
2021/03/10 08:34:51;;;;;;;18.73;16.27;;;5.70;81.90;;;;;;5070241;28;20822;-69
2021/03/10 08:37:17;;;;;;;18.80;16.20;;;5.80;82.10;;;;;;5070619;28;20366;-69
2021/03/10 08:39:47;;;;;;;19.23;17.20;;;5.80;82.10;;;;;;5069858;28;20295;-69
2021/03/10 08:42:31;;;;;;;19.63;16.30;;;5.90;82.00;;;;;;5068177;28;20299;-69
2021/03/10 08:44:57;;;;;;;24.03;18.57;;;5.90;81.90;;;;;;5068702;28;20368;-69
2021/03/10 08:47:28;;;;;;;21.07;17.47;;;5.90;81.80;;;;;;5069765;28;20751;-69
2021/03/10 08:49:56;;;;;;;19.53;16.40;;;5.90;81.90;;;;;;5067885;28;20477;-69
2021/03/10 08:52:23;;;;;;;21.07;17.57;;;6.00;81.80;;;;;;5070399;28;20635;-69
2021/03/10 08:54:52;;;;;;;20.23;17.83;;;6.00;81.70;;;;;;5070205;28;20291;-69
2021/03/10 08:57:23;;;;;;;18.13;16.17;;;6.00;81.70;;;;;;5070697;28;20374;-68
2021/03/10 08:59:49;;;;;;;21.47;17.87;;;6.00;81.60;;;;;;5070499;28;20747;-69
2021/03/10 09:02:15;;;;;;;19.40;16.67;;;6.00;81.70;;;;;;5069107;28;20778;-69
2021/03/10 09:04:48;;;;;;;24.17;17.87;;;6.10;81.80;;;;;;5070776;28;20303;-68
2021/03/10 09:07:18;;;;;;;19.40;17.27;;;6.10;81.60;;;;;;5070756;28;20120;-68
2021/03/10 09:09:45;;;;;;;22.57;19.57;;;6.20;81.60;;;;;;5071744;28;20302;-68
2021/03/10 09:12:12;;;;;;;22.97;17.43;;;6.30;81.50;;;;;;5074368;28;20770;-68
2021/03/10 09:14:38;;;;;;;18.80;15.40;;;6.40;81.40;;;;;;5074317;28;20344;-69
2021/03/10 09:17:04;;;;;;;21.00;16.77;;;6.40;81.10;;;;;;5074530;28;20322;-69
2021/03/10 09:19:36;;;;;;;20.60;17.60;;;6.50;81.10;;;;;;5074922;28;20459;-69
2021/03/10 09:22:19;;;;;;;21.92;18.08;;;6.60;81.10;;;;;;5073446;28;20408;-68
2021/03/10 09:24:53;;;;;;;21.67;18.30;;;6.60;81.10;;;;;;5074509;28;20123;-68
2021/03/10 09:27:26;;;;;;;20.33;17.67;;;6.70;81.10;;;;;;5074443;28;20377;-69
2021/03/10 09:29:54;;;;;;;23.87;19.00;;;6.70;80.80;;;;;;5073901;28;20282;-69
2021/03/10 09:32:20;;;;;;;22.27;18.37;;;6.80;80.80;;;;;;5074289;28;20310;-67
2021/03/10 09:34:54;;;;;;;22.80;18.00;;;6.80;80.60;;;;;;5073496;28;20302;-68
2021/03/10 09:37:24;;;;;;;26.10;20.63;;;6.90;80.60;;;;;;5073139;28;20317;-68
2021/03/10 09:39:52;;;;;;;24.70;18.53;;;6.90;80.60;;;;;;5073563;28;20725;-69
2021/03/10 09:42:20;;;;;;;24.80;20.30;;;7.00;80.80;;;;;;5073802;28;20305;-68
2021/03/10 09:44:51;;;;;;;22.87;20.30;;;7.10;80.80;;;;;;5073267;28;20805;-68
2021/03/10 09:47:20;;;;;;;23.70;20.67;;;7.10;80.80;;;;;;5073864;28;20740;-68
2021/03/10 09:49:49;;;;;;;31.50;22.27;;;7.20;80.50;;;;;;5072455;28;20113;-68
2021/03/10 09:52:14;;;;;;;28.17;22.30;;;7.30;80.40;;;;;;5072435;28;20688;-69
2021/03/10 09:54:54;;;;;;;29.07;22.13;;;7.40;80.50;;;;;;5072975;28;20326;-68
2021/03/10 09:57:25;;;;;;;30.13;23.80;;;7.40;80.70;;;;;;5070776;28;20044;-68
2021/03/10 09:59:51;;;;;;;28.40;23.55;;;7.50;80.40;;;;;;5073582;28;20356;-70
2021/03/10 10:02:17;;;;;;;30.40;23.63;;;7.60;80.30;;;;;;5073429;28;20544;-70
2021/03/10 10:04:44;;;;;;;29.53;24.07;;;7.60;80.30;;;;;;5072658;28;20786;-69
2021/03/10 10:07:13;;;;;;;34.17;24.97;;;7.60;80.40;;;;;;5073493;28;20330;-71
2021/03/10 10:09:40;;;;;;;29.60;23.37;;;7.60;80.20;;;;;;5073222;28;20378;-70
2021/03/10 10:12:06;;;;;;;30.90;24.87;;;7.70;81.20;;;;;;5072615;28;20861;-72
2021/03/10 10:14:32;;;;;;;31.90;25.07;;;7.60;80.50;;;;;;5073570;28;20888;-72
2021/03/10 10:16:58;;;;;;;32.03;25.30;;;7.70;80.60;;;;;;5073376;28;20295;-73
2021/03/10 10:19:23;;;;;;;27.97;24.87;;;7.80;80.70;;;;;;5072488;28;20382;-72
2021/03/10 10:21:50;;;;;;;31.77;26.17;;;7.80;80.60;;;;;;5072828;28;20049;-73
2021/03/10 10:24:17;;;;;;;31.63;25.97;;;7.80;80.50;;;;;;5073263;28;20036;-70
2021/03/10 10:26:44;;;;;;;31.17;24.80;;;7.70;80.40;;;;;;5072529;28;20303;-74
2021/03/10 10:29:09;;;;;;;29.73;25.30;;;7.70;80.70;;;;;;5073032;28;20382;-72
2021/03/10 10:31:35;;;;;;;31.47;26.87;;;7.70;80.60;;;;;;5073631;28;20386;-70
2021/03/10 10:34:02;;;;;;;33.13;26.30;;;7.70;80.70;;;;;;5072300;28;20056;-69
2021/03/10 10:36:27;;;;;;;32.43;26.77;;;7.70;80.80;;;;;;5073304;28;20306;-70
2021/03/10 10:38:53;;;;;;;32.73;26.80;;;7.80;80.90;;;;;;5073058;28;20452;-70
2021/03/10 10:41:19;;;;;;;32.67;27.07;;;7.80;80.60;;;;;;5071930;28;20048;-70
2021/03/10 10:43:44;;;;;;;30.93;25.83;;;7.70;80.60;;;;;;5072540;28;20052;-70
2021/03/10 10:46:10;;;;;;;31.17;26.07;;;7.80;80.80;;;;;;5071471;28;20110;-70
2021/03/10 10:48:35;;;;;;;33.63;27.63;;;7.70;80.90;;;;;;5073181;28;20044;-70
2021/03/10 10:51:01;;;;;;;34.33;28.00;;;7.80;81.00;;;;;;5072853;28;20045;-70
2021/03/10 10:53:27;;;;;;;35.57;28.80;;;7.80;81.00;;;;;;5072145;28;20059;-72
2021/03/10 10:55:52;;;;;;;35.23;28.03;;;7.90;81.20;;;;;;5072503;28;20154;-71
2021/03/10 10:58:18;;;;;;;35.37;27.43;;;7.90;81.00;;;;;;5072337;28;20052;-72
2021/03/10 11:00:44;;;;;;;33.97;28.07;;;7.90;80.70;;;;;;5072082;28;20429;-72
2021/03/10 11:03:09;;;;;;;31.50;25.57;;;7.90;80.70;;;;;;5072604;28;20413;-72
2021/03/10 11:05:35;;;;;;;32.40;23.50;;;8.00;80.70;;;;;;5072805;28;20412;-71
2021/03/10 11:08:00;;;;;;;29.90;25.03;;;7.90;80.60;;;;;;5071483;28;20468;-73
2021/03/10 11:10:27;;;;;;;35.90;27.53;;;8.00;80.80;;;;;;5072465;28;20055;-71
2021/03/10 11:12:52;;;;;;;35.30;28.67;;;8.10;80.70;;;;;;5072203;28;20055;-72
2021/03/10 11:15:18;;;;;;;40.77;36.60;;;8.10;80.70;;;;;;5071528;28;20295;-71
2021/03/10 11:17:43;;;;;;;32.00;27.30;;;8.10;80.80;;;;;;5072182;28;20078;-71
2021/03/10 11:20:09;;;;;;;34.07;27.73;;;8.20;80.90;;;;;;5072166;28;20044;-71
2021/03/10 11:22:35;;;;;;;38.23;32.40;;;8.20;80.70;;;;;;5071673;28;20058;-70
2021/03/10 11:25:06;;;;;;;32.73;28.80;;;8.20;80.70;;;;;;5072104;28;20690;-70
2021/03/10 11:27:32;;;;;;;30.77;26.30;;;8.30;80.80;;;;;;5072318;28;20237;-72
2021/03/10 11:29:57;;;;;;;31.70;27.20;;;8.30;80.80;;;;;;5071038;28;20975;-72
2021/03/10 11:32:23;;;;;;;40.03;31.83;;;8.30;80.50;;;;;;5071265;28;20048;-70
2021/03/10 11:34:49;;;;;;;32.77;27.07;;;8.30;80.70;;;;;;5071899;28;20386;-71
2021/03/10 11:37:17;;;;;;;33.30;27.03;;;8.40;80.80;;;;;;5071115;28;20360;-70
2021/03/10 11:39:43;;;;;;;34.17;28.53;;;8.40;80.10;;;;;;5071770;28;22260;-71
2021/03/10 11:42:09;;;;;;;35.33;27.80;;;8.40;80.40;;;;;;5071750;28;20334;-69
2021/03/10 11:44:35;;;;;;;29.90;25.77;;;8.50;80.40;;;;;;5070954;28;20048;-70
2021/03/10 11:47:00;;;;;;;31.67;28.00;;;8.50;80.40;;;;;;5071676;28;20497;-70
2021/03/10 11:49:26;;;;;;;33.50;27.70;;;8.60;80.40;;;;;;5070930;28;20305;-70
2021/03/10 11:51:51;;;;;;;35.43;30.27;;;8.70;80.20;;;;;;5071644;28;20501;-69
2021/03/10 11:54:17;;;;;;;32.33;26.73;;;8.70;79.80;;;;;;5071434;28;20040;-69
2021/03/10 11:56:43;;;;;;;29.90;24.53;;;8.70;79.80;;;;;;5071026;28;20072;-70
2021/03/10 11:59:09;;;;;;;34.43;26.80;;;8.60;79.70;;;;;;5071436;28;20511;-69
2021/03/10 12:01:37;;;;;;;30.53;25.33;;;8.70;79.90;;;;;;5071934;28;20051;-70
2021/03/10 12:04:02;;;;;;;30.43;25.20;;;8.70;79.90;;;;;;5070404;28;20052;-70
2021/03/10 12:06:28;;;;;;;30.73;25.87;;;8.70;79.90;;;;;;5071416;28;20306;-71
2021/03/10 12:08:54;;;;;;;32.43;26.03;;;8.70;79.70;;;;;;5071173;28;20186;-71
2021/03/10 12:11:19;;;;;;;32.13;26.67;;;8.60;79.60;;;;;;5070839;28;20473;-70
2021/03/10 12:13:45;;;;;;;33.50;26.53;;;8.70;79.80;;;;;;5071163;28;20485;-70
2021/03/10 12:16:11;;;;;;;31.63;26.50;;;8.70;79.50;;;;;;5071087;28;20055;-70
2021/03/10 12:18:37;;;;;;;30.37;25.27;;;8.70;79.50;;;;;;5070639;28;20051;-68
2021/03/10 12:21:03;;;;;;;30.50;25.80;;;8.70;79.40;;;;;;5070818;28;20076;-69
2021/03/10 12:23:29;;;;;;;28.97;25.87;;;8.70;79.40;;;;;;5071200;28;20377;-70
2021/03/10 12:25:54;;;;;;;31.20;26.10;;;8.70;79.40;;;;;;5070434;28;20417;-69
2021/03/10 12:28:20;;;;;;;30.97;25.57;;;8.70;79.30;;;;;;5071416;28;20056;-70
2021/03/10 12:30:46;;;;;;;32.43;26.37;;;8.70;79.30;;;;;;5070903;28;20056;-72
2021/03/10 12:33:13;;;;;;;31.70;25.87;;;8.70;79.20;;;;;;5070415;28;20060;-72
2021/03/10 12:35:39;;;;;;;38.43;29.93;;;8.70;79.00;;;;;;5070740;28;20412;-70
2021/03/10 12:38:05;;;;;;;29.73;26.57;;;8.70;79.10;;;;;;5067542;28;20307;-70
2021/03/10 12:40:30;;;;;;;28.90;24.70;;;8.80;78.80;;;;;;5070239;28;20508;-71